Werte bis 5 Uhr SommerzeitDiagramme Vöhl: Tagesdaten MonatsdatenCSV-Datei: Voehl21.csv

Wetterdaten 2021 Station: Vöhl
Temperaturen in °C relative Nieder- Global- Wind Wind Wind- Sonnen-
Datum Boden Boden Luft Luft Luft Luft Feuchte schlag strahlung max richtung schein
20 cm 5 cm 20 cm 2 m 2 m max 2 m min % mm W/m2*d m/s m/s ° h

06.05.2021 7,3 6,4 1,7 2,0 2,8 1,1 93 0,0 0 2,2 4,8 --- ---
05.05.2021 7,3 7,7 6,2 6,0 8,4 2,3 75 1,3 4213 3,2 12,9 --- 10,3
04.05.2021 7,4 7,7 8,6 8,6 12,9 5,8 68 1,5 2795 5,9 18,6 --- 7,5
03.05.2021 7,4 8,0 7,5 6,9 12,6 -0,9 66 0,0 5069 2,7 10,3 --- 11,6
02.05.2021 7,9 8,1 6,1 5,8 8,8 2,2 74 0,0 2506 1,8 9,3 --- 7,8
01.05.2021 8,2 9,0 7,8 7,3 11,1 4,3 83 0,1 2780 1,1 4,7 --- 8,5
30.04.2021 8,5 8,8 7,0 6,5 9,6 4,8 83 0,1 1657 1,3 7,1 --- 6,0
29.04.2021 9,3 10,7 9,3 9,0 13,7 5,4 84 4,7 4414 3,3 17,0 --- 8,6
28.04.2021 8,2 9,7 11,5 10,4 17,9 -0,6 56 0,3 5709 1,8 10,2 --- 11,3
27.04.2021 7,7 8,7 8,2 6,8 13,6 -1,1 52 0,0 6960 1,7 7,7 --- 11,5
26.04.2021 7,3 8,3 6,3 5,1 12,8 -3,1 59 0,0 7201 1,4 7,2 --- 12,3
25.04.2021 7,4 7,9 4,3 3,7 9,2 -1,2 73 0,0 5768 2,3 8,7 --- 11,9
24.04.2021 7,7 8,7 5,9 5,4 11,8 -0,5 75 0,0 6332 1,8 7,1 --- 11,8
23.04.2021 7,5 8,4 5,5 5,2 11,3 -1,6 75 0,0 6007 1,6 8,9 --- 11,1
22.04.2021 8,1 8,8 5,3 4,9 9,5 -0,6 69 0,0 5758 2,3 9,1 --- 10,7
21.04.2021 8,2 9,8 9,4 9,1 15,6 1,7 76 0,0 6081 2,2 9,9 --- 11,4
20.04.2021 7,4 9,0 8,4 7,6 17,0 0,0 86 10,8 4960 1,2 5,9 --- 9,7
19.04.2021 6,7 8,1 8,0 7,4 12,0 4,6 89 0,3 2801 1,0 4,8 --- 9,3
18.04.2021 5,6 6,7 7,5 7,3 12,5 3,2 86 6,9 2490 1,5 10,1 --- 7,5
17.04.2021 5,2 5,4 4,6 4,7 7,5 -0,9 72 0,1 1732 1,6 8,4 --- 6,6
16.04.2021 5,1 5,7 5,1 4,7 9,1 0,0 68 0,0 4212 2,5 8,9 --- 10,2
15.04.2021 5,0 5,3 2,5 2,1 6,5 -2,2 82 0,6 4066 1,9 9,3 --- 10,8
14.04.2021 5,1 5,3 2,0 1,4 6,3 -2,4 88 0,6 3837 1,5 8,2 --- 9,7
13.04.2021 5,4 5,7 2,0 1,6 7,2 -4,2 81 1,2 4106 1,6 8,8 --- 9,9
12.04.2021 5,5 5,9 2,8 2,1 6,2 -1,6 84 0,1 4093 1,7 8,9 --- 10,5
11.04.2021 6,1 6,6 5,2 5,1 9,7 0,4 98 14,5 957 2,1 6,8 --- 1,7
10.04.2021 5,8 6,7 6,5 6,1 8,0 3,9 95 10,9 1680 1,9 8,4 --- 5,1
09.04.2021 4,6 5,5 6,3 6,0 12,3 -1,4 67 0,0 5296 2,5 11,8 --- 11,1
08.04.2021 4,2 4,5 2,4 1,9 4,9 -0,7 76 0,2 3367 1,7 8,0 --- 9,6
07.04.2021 4,5 4,3 0,5 0,2 3,7 -2,2 88 5,4 1892 2,0 9,6 --- 5,6
06.04.2021 4,9 4,7 0,2 -0,3 3,1 -2,0 87 1,4 3710 2,2 10,9 --- 8,0
05.04.2021 5,8 5,4 1,6 1,4 4,3 -2,3 86 2,8 2534 3,1 13,3 --- 6,6
04.04.2021 6,5 6,7 4,2 3,7 8,7 0,3 79 0,0 3253 1,4 6,5 --- 8,6
03.04.2021 7,0 7,2 4,7 4,3 8,7 0,0 78 0,3 4452 2,5 9,9 --- 10,9
02.04.2021 8,1 8,5 5,8 5,1 9,1 3,3 79 0,0 3533 2,7 12,2 --- 7,2
01.04.2021 8,5 10,0 11,4 11,3 20,9 3,7 70 0,0 4853 2,0 10,2 --- 9,3
31.03.2021 7,7 9,3 13,2 13,1 23,1 1,1 59 0,0 5424 1,8 7,3 --- 10,7
30.03.2021 7,0 8,4 12,4 11,9 22,5 0,1 51 0,0 5478 0,9 4,3 --- 10,6
29.03.2021 6,1 7,7 12,4 12,5 20,0 5,5 53 0,0 4954 2,8 9,0 --- 10,3
28.03.2021 5,1 5,6 6,8 6,7 12,0 0,1 74 0,0 3195 3,5 11,9 --- 8,5
27.03.2021 5,9 6,4 5,0 5,1 8,4 0,9 78 1,3 2913 2,6 12,9 --- 8,0
26.03.2021 5,8 7,2 9,6 9,5 13,6 5,4 79 0,0 4280 3,2 10,6 --- 9,6
25.03.2021 4,9 5,7 7,3 7,3 14,2 -0,1 82 0,0 2432 1,1 5,7 --- 7,3
24.03.2021 4,2 5,0 6,6 6,3 13,6 -1,4 81 0,0 4954 2,8 8,0 --- 10,0
23.03.2021 4,0 4,7 5,3 5,0 9,7 2,3 79 0,0 2034 1,1 4,8 --- 7,0
22.03.2021 3,6 4,0 3,2 3,0 4,9 0,9 91 0,7 1605 2,1 9,4 --- 6,1
21.03.2021 3,5 4,1 4,0 3,8 5,5 2,2 82 0,0 1916 2,3 12,9 --- 7,9
20.03.2021 2,9 3,1 1,3 0,1 4,6 -5,0 63 0,0 3989 1,2 5,1 --- 9,1
19.03.2021 3,1 3,3 1,1 0,8 4,7 -1,3 87 3,0 3418 2,8 10,3 --- 7,7
18.03.2021 2,8 2,7 0,8 0,5 5,7 -3,7 90 0,4 2382 0,9 7,7 --- 6,0
17.03.2021 3,5 3,3 0,9 1,0 2,5 -2,5 85 0,0 1206 1,5 7,8 --- 4,6
16.03.2021 3,8 4,1 3,5 3,4 7,5 0,6 82 0,4 2431 2,0 8,9 --- 6,3
15.03.2021 3,8 4,2 3,2 3,1 6,4 1,2 91 4,9 2103 2,6 12,9 --- 6,2
14.03.2021 3,7 4,0 3,4 3,4 6,3 1,1 88 1,7 2398 2,1 9,4 --- 7,0
13.03.2021 3,9 4,2 3,6 3,7 5,7 1,5 93 14,9 1496 5,4 16,0 --- 4,2
12.03.2021 3,9 4,5 4,9 5,0 8,0 2,2 80 3,3 2400 4,1 15,4 --- 6,8
11.03.2021 3,5 4,4 6,8 6,9 12,1 3,8 83 3,6 1834 6,1 17,0 --- 4,6
10.03.2021 2,6 3,3 3,7 3,5 6,2 -0,3 92 0,2 2000 2,7 9,8 --- 7,1
09.03.2021 2,1 2,2 1,2 1,0 3,1 -1,4 99 4,0 985 1,7 7,0 --- 2,8
08.03.2021 2,0 1,9 1,3 1,1 3,5 -1,0 90 0,0 1346 1,2 5,6 --- 5,2
07.03.2021 2,0 1,3 -1,0 -1,2 3,9 -7,1 85 0,1 3863 1,3 8,1 --- 9,5
06.03.2021 2,6 1,8 -1,0 -1,3 4,9 -7,1 81 0,0 4081 0,8 5,7 --- 9,5
05.03.2021 3,8 3,6 0,8 0,6 3,3 -4,0 82 0,1 2914 2,6 8,8 --- 8,2
04.03.2021 4,1 4,6 4,4 4,5 7,3 1,3 96 6,7 727 1,6 7,0 --- 1,8
03.03.2021 3,7 3,9 4,9 5,2 13,3 -2,2 86 0,0 2629 1,5 7,8 --- 7,8
02.03.2021 3,6 3,8 3,8 3,3 13,2 -3,6 87 0,1 3852 0,9 3,8 --- 9,1
01.03.2021 3,9 4,0 2,4 2,0 8,8 -0,4 99 0,0 1666 1,0 4,2 --- 6,2
28.02.2021 4,1 4,5 3,1 3,0 8,0 -0,4 95 0,0 2586 1,2 4,9 --- 7,8
27.02.2021 4,3 4,2 2,0 2,0 5,6 -2,1 96 0,0 1502 1,3 6,8 --- 4,5
26.02.2021 5,5 6,0 5,4 5,7 8,6 1,8 89 3,6 1112 1,4 8,6 --- 3,8
25.02.2021 5,4 6,8 11,4 11,6 16,7 7,7 78 0,0 2992 2,7 8,4 --- 7,8
24.02.2021 4,5 5,8 9,9 10,3 15,7 3,3 86 0,0 2894 3,0 8,2 --- 8,0
23.02.2021 3,6 4,9 9,0 9,2 15,3 4,1 83 0,0 2725 3,2 11,5 --- 7,2
22.02.2021 2,8 3,4 5,1 5,3 11,8 -2,0 87 0,0 2759 2,5 7,7 --- 7,4
21.02.2021 2,5 3,5 7,7 8,2 14,6 1,2 78 0,0 3203 2,9 9,5 --- 8,3
20.02.2021 1,6 2,5 6,5 7,0 12,8 1,5 88 0,0 2713 2,5 8,6 --- 7,2
19.02.2021 1,0 1,0 3,3 3,7 5,8 -0,1 92 0,0 2593 2,6 7,7 --- 7,7
18.02.2021 0,7 0,6 2,2 2,4 5,6 -1,7 96 2,4 989 1,3 4,7 --- 4,5
17.02.2021 0,5 0,4 3,7 4,2 7,9 1,8 94 1,0 1893 2,4 6,7 --- 6,6
16.02.2021 0,4 0,2 1,2 1,2 3,2 -1,3 99 12,6 1333 3,8 8,9 --- 5,4
15.02.2021 0,5 0,2 -3,9 -3,8 -0,5 -9,3 77 0,0 851 4,8 11,9 --- 3,0
14.02.2021 0,6 0,2 -11,6 -11,3 -1,2 -20,0 82 0,1 2947 0,9 5,7 --- 8,5
13.02.2021 0,7 0,4 -12,1 -11,3 4,2 -17,4 84 8,2 3236 0,5 2,4 --- 8,3
12.02.2021 0,9 0,7 -12,1 -11,0 -5,5 -16,9 93 0,0 2352 1,2 7,9 --- 6,8
11.02.2021 1,0 0,8 -7,6 -7,1 -3,7 -12,9 86 0,0 2127 1,3 5,2 --- 6,9
10.02.2021 1,1 0,8 -12,5 -11,7 -6,0 -20,0 93 0,0 1533 1,7 5,5 --- 6,0
09.02.2021 1,4 1,2 -13,9 -12,9 -8,6 -18,8 89 0,0 2451 1,0 4,2 --- 7,0
08.02.2021 1,7 1,4 -8,5 -9,3 -7,9 -11,4 91 0,0 1417 2,6 6,6 --- 6,3
07.02.2021 2,1 1,8 -5,3 -5,7 -2,3 -8,0 97 0,0 552 3,7 10,4 --- 1,4
06.02.2021 2,8 3,0 1,2 1,0 3,7 -2,3 100 2,8 248 2,5 7,6 --- ---
05.02.2021 2,8 3,0 2,9 2,9 4,3 1,2 98 5,9 337 1,1 4,9 --- ---
04.02.2021 3,1 4,0 4,8 5,1 7,9 0,4 89 0,6 1603 1,4 7,6 --- 4,8
03.02.2021 2,0 3,3 6,8 7,2 9,2 5,6 98 3,7 404 3,2 9,7 --- 0,4
02.02.2021 0,5 0,6 2,9 3,0 6,5 0,5 99 2,1 440 2,6 7,3 --- 0,1
01.02.2021 0,4 0,1 -0,3 -0,6 1,1 -2,2 99 0,2 488 2,3 5,5 --- 0,4
31.01.2021 0,7 0,2 -2,2 -2,7 0,4 -6,8 90 0,0 2255 1,7 6,5 --- 7,3
30.01.2021 1,0 1,0 -0,1 -0,3 5,3 -2,4 92 0,6 792 2,7 8,7 --- 3,1
29.01.2021 1,0 0,9 2,3 2,4 7,3 -0,4 97 15,5 631 1,5 7,0 --- 1,3
28.01.2021 1,0 0,9 0,6 0,4 1,1 -0,3 100 5,5 174 2,1 7,5 --- ---
27.01.2021 0,9 0,7 -0,6 -0,6 0,8 -2,3 99 0,7 710 4,0 8,9 --- 2,5
26.01.2021 0,9 0,6 -0,3 -0,3 3,2 -2,5 95 2,2 1164 2,5 7,2 --- 4,2
25.01.2021 1,2 0,8 -2,6 -2,9 2,9 -5,0 96 0,5 1182 0,8 5,7 --- 5,6
24.01.2021 1,6 1,4 -0,3 -0,4 1,0 -3,2 98 4,4 399 1,1 6,3 --- 0,4
23.01.2021 1,9 1,5 0,0 0,1 1,8 -1,9 99 0,1 414 1,8 8,2 --- 0,2
22.01.2021 2,6 3,2 3,2 3,3 7,1 -1,5 97 6,4 571 3,3 15,6 --- 1,3
21.01.2021 1,6 2,1 4,7 5,0 7,3 3,0 85 4,0 834 5,9 15,8 --- 2,9
20.01.2021 0,8 1,0 2,5 2,7 5,5 0,2 89 0,0 1231 5,3 11,1 --- 4,4
19.01.2021 0,6 0,4 1,2 1,4 3,3 -0,1 99 5,3 434 5,7 13,8 --- 0,5
18.01.2021 0,5 0,2 1,0 1,2 2,5 -0,2 97 2,6 568 2,2 6,2 --- 0,5
17.01.2021 0,5 0,2 -2,1 -2,5 0,6 -4,0 97 0,0 681 2,2 6,7 --- 2,3
16.01.2021 0,6 0,2 -2,6 -2,8 -1,2 -3,6 84 0,0 426 1,9 6,3 --- ---
15.01.2021 0,8 0,3 -1,7 -1,8 -0,6 -4,1 91 0,0 326 1,7 6,8 --- 0,1
14.01.2021 0,9 0,5 -0,7 -0,9 0,9 -1,9 86 0,0 503 2,0 11,1 --- 1,1
13.01.2021 1,0 0,6 0,8 1,2 2,7 -0,4 85 0,7 707 2,1 13,0 --- 1,7
12.01.2021 1,1 0,9 0,6 0,8 2,7 -0,4 98 4,6 576 4,3 11,8 --- 1,6
11.01.2021 1,3 0,8 -1,3 -1,4 -0,1 -2,5 93 0,0 719 4,6 10,5 --- 3,0
10.01.2021 1,5 1,2 -1,0 -1,1 1,0 -2,9 97 0,0 707 1,4 4,0 --- 3,0
09.01.2021 1,5 1,3 -0,9 -1,0 0,5 -2,0 93 0,3 561 0,9 5,4 --- 1,2
08.01.2021 1,5 1,3 -0,3 -0,5 1,5 -1,2 97 1,8 588 1,2 5,4 --- 1,7
07.01.2021 1,5 1,2 -0,5 -0,7 0,7 -1,4 97 0,0 527 2,0 5,5 --- 1,5
06.01.2021 1,6 1,3 -0,1 -0,1 0,4 -1,2 99 1,2 221 1,8 6,4 --- ---
05.01.2021 1,6 1,3 -0,5 -0,7 -0,2 -1,1 100 0,0 201 2,7 6,5 --- ---
04.01.2021 1,7 1,4 -0,7 -0,9 -0,5 -1,2 100 0,0 240 1,9 4,0 --- ---
03.01.2021 1,8 1,4 0,0 -0,1 0,5 -1,1 94 0,0 248 3,1 9,1 --- ---
02.01.2021 1,8 1,5 0,3 0,2 1,5 -0,7 97 0,0 365 1,3 4,9 --- ---
01.01.2021 1,9 1,6 0,1 0,0 1,8 -1,4 99 1,3 475 0,5 3,5 --- 0,8

Mittelwerte (Temperaturen, Strahlung, rel. Feuchte, Wind), Summe (Regen) für 2021
3,7 3,9 2,7 2,6 86 210 2.363 2,2

Landesbetrieb Landwirtschaft Hessen 2009

      Werte bis 5 Uhr SommerzeitCSV-Datei: Voehl21.csvDiagramm: Voehl